Time;durP1;ratioP1;P1;durP2;ratioP2;P2;SDS_P1;SDS_P2;PMS_P1;PMS_P2;Temp;Humidity;BMP_temperature;BMP_pressure;BME280_temperature;BME280_humidity;BME280_pressure;Samples;Min_cycle;Max_cycle;Signal;HPM_P1;HPM_P2
2022/11/13 00:01:58;;;;;;;39.33;22.40;;;;;;;;;;5101304;28;20036;-78
2022/11/13 00:05:01;;;;;;;43.13;25.90;;;;;;;;;;5114307;28;20047;-78
2022/11/13 00:08:05;;;;;;;54.22;24.80;;;;;;;;;;5114179;28;20040;-77
2022/11/13 00:11:12;;;;;;;45.88;23.38;;;;;;;;;;5115914;28;20047;-79
2022/11/13 00:14:16;;;;;;;43.13;21.75;;;;;;;;;;5114020;28;20040;-76
2022/11/13 00:17:19;;;;;;;39.72;19.88;;;;;;;;;;5113901;28;20412;-77
2022/11/13 00:20:24;;;;;;;36.13;19.10;;;;;;;;;;5113809;28;20035;-78
2022/11/13 00:23:28;;;;;;;30.98;16.85;;;;;;;;;;5113655;28;20044;-78
2022/11/13 00:26:32;;;;;;;37.17;18.95;;;;;;;;;;5113475;28;20040;-77
2022/11/13 00:29:36;;;;;;;35.05;18.20;;;;;;;;;;5117322;28;20384;-77
2022/11/13 00:32:40;;;;;;;39.33;19.67;;;;;;;;;;5117648;28;20055;-78
2022/11/13 00:35:45;;;;;;;35.65;18.00;;;;;;;;;;5118032;28;20040;-78
2022/11/13 00:38:49;;;;;;;33.40;18.40;;;;;;;;;;5117695;28;20040;-77
2022/11/13 00:41:54;;;;;;;34.63;18.25;;;;;;;;;;5118468;28;20048;-78
2022/11/13 00:44:57;;;;;;;29.52;18.50;;;;;;;;;;5117812;28;20035;-76
2022/11/13 00:48:01;;;;;;;29.17;16.92;;;;;;;;;;5117966;28;20043;-77
2022/11/13 00:51:05;;;;;;;29.50;16.45;;;;;;;;;;5117599;28;20036;-77
2022/11/13 00:54:09;;;;;;;36.38;17.38;;;;;;;;;;5117809;28;20031;-79
2022/11/13 00:57:13;;;;;;;35.67;18.33;;;;;;;;;;5121834;28;20043;-78
2022/11/13 01:00:17;;;;;;;33.53;18.10;;;;;;;;;;5117968;28;20419;-78
2022/11/13 01:03:22;;;;;;;28.73;15.90;;;;;;;;;;5118140;28;20035;-79
2022/11/13 01:06:26;;;;;;;32.50;17.20;;;;;;;;;;5117069;28;20051;-79
2022/11/13 01:09:31;;;;;;;46.97;24.02;;;;;;;;;;5117664;28;20495;-79
2022/11/13 01:12:34;;;;;;;39.05;23.00;;;;;;;;;;5118517;28;20039;-79
2022/11/13 01:15:40;;;;;;;29.13;16.87;;;;;;;;;;5117340;28;20048;-78
2022/11/13 01:18:45;;;;;;;23.75;15.15;;;;;;;;;;5116886;28;20040;-78
2022/11/13 01:21:49;;;;;;;35.07;18.23;;;;;;;;;;5117652;28;20035;-76
2022/11/13 01:24:52;;;;;;;34.58;19.67;;;;;;;;;;5117079;28;20405;-78
2022/11/13 01:27:56;;;;;;;36.42;20.00;;;;;;;;;;5116801;28;20039;-76
2022/11/13 01:31:04;;;;;;;36.45;20.40;;;;;;;;;;5116813;28;20040;-79
2022/11/13 01:34:08;;;;;;;39.47;19.77;;;;;;;;;;5117204;28;20044;-78
2022/11/13 01:37:11;;;;;;;35.05;19.25;;;;;;;;;;5116924;28;20043;-78
2022/11/13 01:40:15;;;;;;;34.75;18.55;;;;;;;;;;5116035;28;20036;-79
2022/11/13 01:43:31;;;;;;;38.10;21.47;;;;;;;;;;5117598;28;20035;-79
2022/11/13 01:46:43;;;;;;;34.55;19.90;;;;;;;;;;5117041;28;20393;-78
2022/11/13 01:49:48;;;;;;;34.88;19.30;;;;;;;;;;5116660;28;20032;-77
2022/11/13 01:52:52;;;;;;;32.63;18.13;;;;;;;;;;5116600;28;20044;-78
2022/11/13 01:55:57;;;;;;;35.08;18.38;;;;;;;;;;5116572;28;20393;-78
2022/11/13 01:59:23;;;;;;;27.98;16.17;;;;;;;;;;5117060;28;20376;-77
2022/11/13 02:02:27;;;;;;;28.98;15.77;;;;;;;;;;5116077;28;20035;-77
2022/11/13 02:05:32;;;;;;;25.60;14.93;;;;;;;;;;5116595;28;20048;-77
2022/11/13 02:08:36;;;;;;;26.85;14.18;;;;;;;;;;5103950;28;20048;-77
2022/11/13 02:11:40;;;;;;;24.42;13.75;;;;;;;;;;5116081;28;20420;-78
2022/11/13 02:14:52;;;;;;;26.92;15.48;;;;;;;;;;5115962;28;20480;-77
2022/11/13 02:17:58;;;;;;;24.65;14.52;;;;;;;;;;5116095;28;20036;-79
2022/11/13 02:21:20;;;;;;;26.00;14.13;;;;;;;;;;5116029;28;20043;-79
2022/11/13 02:24:38;;;;;;;26.80;13.32;;;;;;;;;;5115755;28;20052;-78
2022/11/13 02:27:45;;;;;;;23.20;12.45;;;;;;;;;;5116436;28;20047;-78
2022/11/13 02:30:48;;;;;;;23.05;13.23;;;;;;;;;;5120036;28;20046;-79
2022/11/13 02:33:52;;;;;;;21.10;13.75;;;;;;;;;;5116449;28;20043;-78
2022/11/13 02:36:56;;;;;;;22.35;13.43;;;;;;;;;;5115630;28;20043;-77
2022/11/13 02:39:59;;;;;;;23.58;14.13;;;;;;;;;;5103419;28;20039;-77
2022/11/13 02:43:04;;;;;;;20.52;12.15;;;;;;;;;;5115451;28;20035;-77
2022/11/13 02:46:08;;;;;;;23.47;13.07;;;;;;;;;;5115913;28;20043;-77
2022/11/13 02:49:12;;;;;;;19.23;12.30;;;;;;;;;;5115354;28;20476;-78
2022/11/13 02:52:16;;;;;;;34.05;17.60;;;;;;;;;;5115024;28;20040;-76
2022/11/13 02:55:20;;;;;;;26.20;14.07;;;;;;;;;;5115461;28;20031;-77
2022/11/13 02:58:24;;;;;;;23.67;14.40;;;;;;;;;;5115449;28;20044;-76
2022/11/13 03:01:28;;;;;;;26.50;13.18;;;;;;;;;;5115504;28;20036;-76
2022/11/13 03:04:31;;;;;;;22.15;13.02;;;;;;;;;;5115041;28;20040;-77
2022/11/13 03:07:35;;;;;;;27.88;14.85;;;;;;;;;;5102535;28;20488;-78
2022/11/13 03:10:38;;;;;;;28.40;13.52;;;;;;;;;;5115092;28;20040;-77
2022/11/13 03:13:43;;;;;;;26.88;14.18;;;;;;;;;;5114764;28;20483;-77
2022/11/13 03:16:46;;;;;;;26.90;13.77;;;;;;;;;;5119076;28;20388;-77
2022/11/13 03:19:50;;;;;;;31.42;15.25;;;;;;;;;;5114841;28;20040;-78
2022/11/13 03:22:54;;;;;;;24.83;14.82;;;;;;;;;;5114741;28;20044;-77
2022/11/13 03:26:06;;;;;;;28.83;14.50;;;;;;;;;;5114634;28;20032;-78
2022/11/13 03:29:10;;;;;;;24.63;14.38;;;;;;;;;;5114555;28;20035;-77
2022/11/13 03:32:14;;;;;;;26.15;13.93;;;;;;;;;;5114438;28;20036;-77
2022/11/13 03:35:19;;;;;;;22.45;13.05;;;;;;;;;;5114590;28;20043;-77
2022/11/13 03:38:24;;;;;;;17.75;11.35;;;;;;;;;;5114607;28;20412;-77
2022/11/13 03:41:28;;;;;;;18.98;11.20;;;;;;;;;;5114907;28;20039;-77
2022/11/13 03:44:31;;;;;;;20.45;11.00;;;;;;;;;;5114210;28;20051;-77
2022/11/13 03:47:36;;;;;;;20.33;10.80;;;;;;;;;;5114394;28;20035;-77
2022/11/13 03:50:47;;;;;;;81.35;42.33;;;;;;;;;;5114708;28;20036;-77
2022/11/13 03:53:51;;;;;;;92.40;45.97;;;;;;;;;;5114538;28;20051;-77
2022/11/13 03:56:55;;;;;;;45.22;23.77;;;;;;;;;;5114961;28;20043;-78
2022/11/13 03:59:58;;;;;;;21.98;13.18;;;;;;;;;;5114633;28;20047;-79
2022/11/13 04:03:02;;;;;;;29.73;15.15;;;;;;;;;;5113613;28;20031;-77
2022/11/13 04:06:06;;;;;;;29.60;15.97;;;;;;;;;;5114093;28;20043;-77
2022/11/13 04:09:10;;;;;;;31.85;17.15;;;;;;;;;;5114068;28;20036;-79
2022/11/13 04:12:14;;;;;;;34.65;20.48;;;;;;;;;;5114206;28;20504;-78
2022/11/13 04:15:19;;;;;;;51.20;27.70;;;;;;;;;;5114137;28;20381;-77
2022/11/13 04:18:23;;;;;;;47.10;25.40;;;;;;;;;;5114019;28;20480;-77
2022/11/13 04:21:27;;;;;;;40.70;22.65;;;;;;;;;;5113582;28;20039;-77
2022/11/13 04:24:32;;;;;;;58.05;31.27;;;;;;;;;;5115282;28;20039;-78
2022/11/13 04:27:36;;;;;;;51.08;26.98;;;;;;;;;;5116485;28;20040;-77
2022/11/13 04:30:42;;;;;;;47.05;25.10;;;;;;;;;;5116620;28;20059;-77
2022/11/13 04:33:45;;;;;;;48.28;25.10;;;;;;;;;;5116487;28;20039;-78
2022/11/13 04:36:49;;;;;;;41.03;23.30;;;;;;;;;;5116096;28;20035;-78
2022/11/13 04:39:52;;;;;;;42.47;22.48;;;;;;;;;;5115904;28;20047;-77
2022/11/13 04:42:56;;;;;;;31.83;16.55;;;;;;;;;;5115600;28;20480;-78
2022/11/13 04:45:59;;;;;;;29.20;16.27;;;;;;;;;;5115438;28;20052;-77
2022/11/13 04:49:03;;;;;;;45.00;19.27;;;;;;;;;;5114151;28;20035;-77
2022/11/13 04:52:06;;;;;;;35.38;17.52;;;;;;;;;;5113759;28;20040;-77
2022/11/13 04:55:11;;;;;;;23.45;13.52;;;;;;;;;;5113799;28;20036;-77
2022/11/13 04:58:15;;;;;;;32.00;15.13;;;;;;;;;;5113755;28;20047;-77
2022/11/13 05:01:20;;;;;;;27.43;14.97;;;;;;;;;;5113616;28;20048;-77
2022/11/13 05:04:23;;;;;;;23.80;14.48;;;;;;;;;;5113177;28;20280;-77
2022/11/13 05:07:28;;;;;;;26.33;14.35;;;;;;;;;;5114041;28;20048;-79
2022/11/13 05:10:33;;;;;;;23.83;12.75;;;;;;;;;;5113270;28;20036;-77
2022/11/13 05:13:36;;;;;;;20.08;11.90;;;;;;;;;;5113193;28;20035;-80
2022/11/13 05:16:39;;;;;;;24.25;13.18;;;;;;;;;;5116475;28;20051;-78
2022/11/13 05:19:43;;;;;;;27.58;15.20;;;;;;;;;;5116859;28;20040;-78
2022/11/13 05:22:47;;;;;;;38.28;20.50;;;;;;;;;;5117351;28;20051;-78
2022/11/13 05:25:51;;;;;;;32.78;19.08;;;;;;;;;;5116878;28;20401;-77
2022/11/13 05:28:59;;;;;;;27.90;18.03;;;;;;;;;;5116840;28;20036;-79
2022/11/13 05:32:03;;;;;;;29.30;15.60;;;;;;;;;;5117126;28;20287;-78
2022/11/13 05:35:07;;;;;;;32.42;16.85;;;;;;;;;;5116716;28;20039;-77
2022/11/13 05:38:11;;;;;;;26.50;14.55;;;;;;;;;;5117136;28;20044;-77
2022/11/13 05:41:17;;;;;;;40.95;22.40;;;;;;;;;;5117013;28;20044;-78
2022/11/13 05:44:21;;;;;;;31.55;19.27;;;;;;;;;;5117021;28;20052;-77
2022/11/13 05:47:25;;;;;;;27.27;15.20;;;;;;;;;;5116286;28;20043;-78
2022/11/13 05:50:28;;;;;;;30.42;18.27;;;;;;;;;;5116286;28;20043;-77
2022/11/13 05:53:34;;;;;;;28.27;16.20;;;;;;;;;;5116184;28;20493;-78
2022/11/13 05:56:39;;;;;;;30.00;17.80;;;;;;;;;;5116218;28;20047;-79
2022/11/13 05:59:43;;;;;;;51.78;26.73;;;;;;;;;;5116245;28;20048;-77
2022/11/13 06:02:47;;;;;;;39.15;23.23;;;;;;;;;;5116625;28;20052;-77
2022/11/13 06:05:51;;;;;;;29.50;15.93;;;;;;;;;;5115574;28;20146;-77
2022/11/13 06:08:57;;;;;;;30.35;15.63;;;;;;;;;;5115908;28;20280;-77
2022/11/13 06:12:00;;;;;;;30.38;18.42;;;;;;;;;;5115727;28;20047;-77
2022/11/13 06:15:04;;;;;;;38.75;22.42;;;;;;;;;;5126214;28;20043;-77
2022/11/13 06:18:08;;;;;;;43.38;22.33;;;;;;;;;;5116499;28;20393;-77
2022/11/13 06:21:24;;;;;;;38.25;23.13;;;;;;;;;;5115664;28;20501;-78
2022/11/13 06:24:27;;;;;;;;;;;;;;;;;;5116406;28;20055;-77
2022/11/13 06:27:31;;;;;;;68.15;29.42;;;;;;;;;;5115173;28;19911;-78
2022/11/13 06:30:34;;;;;;;81.45;39.42;;;;;;;;;;5115474;28;20045;-78
2022/11/13 06:33:39;;;;;;;80.65;37.58;;;;;;;;;;5115758;28;20419;-77
2022/11/13 06:36:44;;;;;;;45.70;26.73;;;;;;;;;;5116136;28;20035;-77
2022/11/13 06:39:47;;;;;;;49.45;25.13;;;;;;;;;;5116110;28;20044;-77
2022/11/13 06:42:51;;;;;;;47.83;25.60;;;;;;;;;;5115122;28;20036;-77
2022/11/13 06:45:57;;;;;;;46.08;25.48;;;;;;;;;;5115667;28;20036;-77
2022/11/13 06:49:01;;;;;;;48.35;27.42;;;;;;;;;;5115708;28;20035;-77
2022/11/13 06:52:06;;;;;;;48.17;28.45;;;;;;;;;;5115812;28;20400;-77
2022/11/13 06:55:10;;;;;;;45.63;27.90;;;;;;;;;;5115286;28;20039;-78
2022/11/13 06:58:15;;;;;;;57.73;28.37;;;;;;;;;;5117399;28;20043;-78
2022/11/13 07:01:20;;;;;;;45.05;26.63;;;;;;;;;;5114662;28;20044;-77
2022/11/13 07:04:23;;;;;;;48.88;27.00;;;;;;;;;;5115233;28;20044;-77
2022/11/13 07:07:27;;;;;;;47.22;27.23;;;;;;;;;;5115008;28;20040;-77
2022/11/13 07:10:31;;;;;;;44.03;25.70;;;;;;;;;;5115106;28;20039;-77
2022/11/13 07:13:37;;;;;;;47.90;27.83;;;;;;;;;;5114976;28;20040;-77
2022/11/13 07:16:41;;;;;;;53.72;28.95;;;;;;;;;;5114749;28;20264;-77
2022/11/13 07:19:46;;;;;;;54.00;28.93;;;;;;;;;;5115455;28;20040;-78
2022/11/13 07:22:50;;;;;;;50.15;28.70;;;;;;;;;;5114347;28;20036;-77
2022/11/13 07:25:56;;;;;;;50.50;27.50;;;;;;;;;;5115003;28;20047;-78
2022/11/13 07:29:00;;;;;;;48.88;25.90;;;;;;;;;;5114375;28;20040;-77
2022/11/13 07:32:04;;;;;;;52.20;27.30;;;;;;;;;;5114550;28;20044;-77
2022/11/13 07:35:09;;;;;;;42.20;24.67;;;;;;;;;;5114619;28;20044;-77
2022/11/13 07:38:13;;;;;;;44.08;26.58;;;;;;;;;;5113608;28;20039;-77
2022/11/13 07:41:17;;;;;;;38.67;19.80;;;;;;;;;;5114280;28;20039;-79
2022/11/13 07:44:21;;;;;;;39.53;25.17;;;;;;;;;;5118212;28;20039;-76
2022/11/13 07:47:24;;;;;;;45.35;25.60;;;;;;;;;;5114387;28;20035;-78
2022/11/13 07:50:30;;;;;;;45.38;24.65;;;;;;;;;;5113751;28;20044;-78
2022/11/13 07:53:34;;;;;;;40.03;21.65;;;;;;;;;;5114208;28;20051;-79
2022/11/13 07:56:39;;;;;;;31.98;18.45;;;;;;;;;;5114327;28;20047;-77
2022/11/13 07:59:42;;;;;;;13.95;8.43;;;;;;;;;;5113831;28;20040;-78
2022/11/13 08:02:46;;;;;;;28.23;18.02;;;;;;;;;;5113715;28;20044;-78
2022/11/13 08:05:50;;;;;;;31.00;17.88;;;;;;;;;;5113359;28;20043;-78
2022/11/13 08:08:54;;;;;;;32.08;19.75;;;;;;;;;;5113190;28;20051;-79
2022/11/13 08:11:59;;;;;;;34.35;18.67;;;;;;;;;;5115391;28;20065;-80
2022/11/13 08:15:03;;;;;;;33.20;20.10;;;;;;;;;;5113709;28;20039;-76
2022/11/13 08:18:07;;;;;;;30.77;20.20;;;;;;;;;;5113715;28;20039;-78
2022/11/13 08:21:12;;;;;;;36.45;20.15;;;;;;;;;;5113351;28;20051;-78
2022/11/13 08:24:16;;;;;;;36.13;20.70;;;;;;;;;;5114234;28;20047;-77
2022/11/13 08:27:22;;;;;;;36.55;20.88;;;;;;;;;;5126919;28;20276;-86
2022/11/13 08:30:27;;;;;;;29.95;19.02;;;;;;;;;;5108871;28;20492;-82
2022/11/13 08:33:31;;;;;;;37.70;22.80;;;;;;;;;;5116946;28;20039;-82
2022/11/13 08:36:35;;;;;;;36.15;22.33;;;;;;;;;;5115060;28;20051;-77
2022/11/13 08:39:38;;;;;;;23.80;12.68;;;;;;;;;;5114868;28;20400;-81
2022/11/13 08:42:43;;;;;;;15.88;10.65;;;;;;;;;;5113803;28;20047;-79
2022/11/13 08:45:47;;;;;;;36.57;20.80;;;;;;;;;;5113402;28;20051;-79
2022/11/13 08:48:51;;;;;;;29.92;18.95;;;;;;;;;;5113966;28;20040;-78
2022/11/13 08:51:55;;;;;;;35.95;21.42;;;;;;;;;;5117456;28;20032;-79
2022/11/13 08:54:59;;;;;;;31.60;20.20;;;;;;;;;;5117581;28;20047;-78
2022/11/13 08:58:03;;;;;;;34.38;19.27;;;;;;;;;;5117343;28;20043;-79
2022/11/13 09:01:07;;;;;;;32.50;19.73;;;;;;;;;;5116873;28;20031;-79
2022/11/13 09:04:10;;;;;;;34.35;19.38;;;;;;;;;;5116929;28;20404;-78
2022/11/13 09:07:14;;;;;;;39.78;23.13;;;;;;;;;;5116524;28;20040;-78
2022/11/13 09:10:18;;;;;;;37.15;22.48;;;;;;;;;;5117353;28;20035;-78
2022/11/13 09:13:21;;;;;;;34.53;21.38;;;;;;;;;;5116623;28;20043;-77
2022/11/13 09:16:25;;;;;;;30.38;18.92;;;;;;;;;;5117062;28;20039;-80
2022/11/13 09:19:29;;;;;;;30.58;19.25;;;;;;;;;;5116946;28;20039;-79
2022/11/13 09:22:33;;;;;;;34.13;20.75;;;;;;;;;;5117339;28;20051;-79
2022/11/13 09:25:37;;;;;;;29.00;19.35;;;;;;;;;;5116631;28;20031;-80
2022/11/13 09:28:41;;;;;;;43.72;26.45;;;;;;;;;;5116942;28;20485;-81
2022/11/13 09:31:45;;;;;;;34.72;19.42;;;;;;;;;;5131875;28;20469;-82
2022/11/13 09:34:50;;;;;;;93.20;59.67;;;;;;;;;;5135022;28;20055;-81
2022/11/13 09:37:54;;;;;;;23.85;15.25;;;;;;;;;;5128276;28;20048;-82
2022/11/13 09:41:04;;;;;;;29.67;17.73;;;;;;;;;;5127892;28;20035;-79
2022/11/13 09:44:28;;;;;;;18.52;10.52;;;;;;;;;;5135132;28;20043;-81
2022/11/13 09:47:43;;;;;;;17.25;10.32;;;;;;;;;;5128965;28;20047;-80
2022/11/13 09:50:47;;;;;;;13.00;8.80;;;;;;;;;;5121432;28;20048;-78
2022/11/13 09:53:53;;;;;;;11.57;8.48;;;;;;;;;;5120463;28;20048;-78
2022/11/13 09:57:17;;;;;;;11.23;8.57;;;;;;;;;;5127301;28;20139;-78
2022/11/13 10:00:21;;;;;;;13.43;9.95;;;;;;;;;;5118379;28;20044;-77
2022/11/13 10:03:46;;;;;;;14.67;7.63;;;;;;;;;;5118462;28;20048;-76
2022/11/13 10:07:04;;;;;;;12.90;7.50;;;;;;;;;;5117867;28;20048;-78
2022/11/13 10:10:41;;;;;;;11.50;6.22;;;;;;;;;;5115666;28;20047;-78
2022/11/13 10:13:56;;;;;;;13.93;8.82;;;;;;;;;;5122219;28;20039;-77
2022/11/13 10:17:05;;;;;;;;;;;;;;;;;;5119442;28;20464;-77
2022/11/13 10:20:21;;;;;;;14.73;8.80;;;;;;;;;;5116524;28;19911;-78
2022/11/13 10:23:34;;;;;;;10.85;7.13;;;;;;;;;;5116767;28;20040;-78
2022/11/13 10:26:38;;;;;;;15.27;9.20;;;;;;;;;;5116021;28;20066;-77
2022/11/13 10:29:42;;;;;;;18.77;8.93;;;;;;;;;;5116252;28;20040;-77
2022/11/13 10:32:46;;;;;;;13.67;8.63;;;;;;;;;;5116277;28;20396;-77
2022/11/13 10:36:13;;;;;;;16.75;9.82;;;;;;;;;;5118532;28;20040;-77
2022/11/13 10:39:17;;;;;;;11.75;6.47;;;;;;;;;;5116790;28;20039;-79
2022/11/13 10:42:26;;;;;;;12.10;7.72;;;;;;;;;;5115749;28;20047;-76
2022/11/13 10:45:30;;;;;;;13.35;7.68;;;;;;;;;;5115590;28;20488;-77
2022/11/13 10:48:35;;;;;;;17.95;9.90;;;;;;;;;;5115661;28;20032;-77
2022/11/13 10:51:40;;;;;;;12.10;6.75;;;;;;;;;;5116959;28;20040;-77
2022/11/13 10:54:44;;;;;;;13.18;8.15;;;;;;;;;;5115712;28;20400;-78
2022/11/13 10:57:58;;;;;;;9.93;6.22;;;;;;;;;;5115975;28;20036;-77
2022/11/13 11:01:20;;;;;;;6.18;4.60;;;;;;;;;;5116466;28;20052;-76
2022/11/13 11:04:26;;;;;;;8.65;6.35;;;;;;;;;;5117097;28;20392;-77
2022/11/13 11:07:39;;;;;;;50.65;24.00;;;;;;;;;;5116189;28;20489;-78
2022/11/13 11:14:25;;;;;;;13.30;8.18;;;;;;;;;;5115446;28;20047;-77
2022/11/13 11:17:39;;;;;;;14.43;8.70;;;;;;;;;;5120553;28;20039;-77
2022/11/13 11:20:52;;;;;;;10.10;6.53;;;;;;;;;;5116979;28;20488;-77
2022/11/13 11:23:59;;;;;;;11.55;7.68;;;;;;;;;;5116947;28;20040;-77
2022/11/13 11:27:11;;;;;;;11.40;6.38;;;;;;;;;;5118267;28;20035;-77
2022/11/13 11:30:23;;;;;;;9.90;6.53;;;;;;;;;;5108581;28;20047;-77
2022/11/13 11:33:35;;;;;;;11.98;6.20;;;;;;;;;;5119773;28;20040;-79
2022/11/13 11:36:51;;;;;;;7.22;4.88;;;;;;;;;;5118274;28;20040;-76
2022/11/13 11:40:06;;;;;;;9.32;5.95;;;;;;;;;;5115546;28;20044;-77
2022/11/13 11:43:36;;;;;;;9.95;6.55;;;;;;;;;;5115494;28;20039;-77
2022/11/13 11:46:40;;;;;;;14.82;7.75;;;;;;;;;;5117180;28;20043;-77
2022/11/13 11:49:45;;;;;;;11.15;6.63;;;;;;;;;;5117000;28;20040;-79
2022/11/13 11:53:15;;;;;;;12.27;6.32;;;;;;;;;;5103640;28;20438;-78
2022/11/13 11:56:30;;;;;;;10.55;6.97;;;;;;;;;;5116266;28;20039;-77
2022/11/13 12:00:08;;;;;;;10.60;7.20;;;;;;;;;;5118623;28;20048;-78
2022/11/13 12:03:38;;;;;;;9.55;6.43;;;;;;;;;;5118100;28;20473;-77
2022/11/13 12:07:37;;;;;;;12.80;7.18;;;;;;;;;;5116424;28;20048;-77
2022/11/13 12:10:56;;;;;;;8.82;6.20;;;;;;;;;;5032470;28;20055;-78
2022/11/13 12:14:17;;;;;;;11.75;7.97;;;;;;;;;;5117139;28;20044;-76
2022/11/13 12:17:58;;;;;;;13.10;7.82;;;;;;;;;;5115526;28;20056;-76
2022/11/13 12:21:30;;;;;;;11.32;7.07;;;;;;;;;;5096139;28;20055;-77
2022/11/13 12:24:50;;;;;;;12.05;7.78;;;;;;;;;;5122605;28;20048;-78
2022/11/13 12:28:17;;;;;;;20.50;11.57;;;;;;;;;;5118829;28;20392;-77
2022/11/13 12:31:38;;;;;;;15.40;10.38;;;;;;;;;;5118638;28;20035;-77
2022/11/13 12:34:54;;;;;;;15.50;7.43;;;;;;;;;;5119145;28;20484;-80
2022/11/13 12:38:34;;;;;;;14.80;9.18;;;;;;;;;;5121362;28;20055;-78
2022/11/13 12:41:42;;;;;;;14.82;9.35;;;;;;;;;;5021419;28;20046;-78
2022/11/13 12:45:12;;;;;;;14.10;9.10;;;;;;;;;;5122233;28;20048;-77
2022/11/13 12:48:26;;;;;;;9.20;6.43;;;;;;;;;;5112148;28;20043;-78
2022/11/13 12:51:38;;;;;;;15.02;9.27;;;;;;;;;;5119756;28;20044;-78
2022/11/13 12:54:43;;;;;;;12.27;7.78;;;;;;;;;;5118743;28;20039;-77
2022/11/13 12:57:47;;;;;;;14.45;9.63;;;;;;;;;;5120495;28;20045;-77
2022/11/13 13:01:16;;;;;;;16.60;8.83;;;;;;;;;;5119047;28;20040;-77
2022/11/13 13:04:48;;;;;;;16.15;10.77;;;;;;;;;;5117458;28;20044;-78
2022/11/13 13:08:07;;;;;;;17.88;11.07;;;;;;;;;;5118150;28;20039;-78
2022/11/13 13:11:36;;;;;;;17.35;10.75;;;;;;;;;;5117516;28;20039;-78
2022/11/13 13:15:06;;;;;;;17.83;9.82;;;;;;;;;;5116620;28;20048;-78
2022/11/13 13:18:27;;;;;;;17.27;10.90;;;;;;;;;;5117004;28;20048;-78
2022/11/13 13:21:40;;;;;;;18.63;10.90;;;;;;;;;;5117613;28;20044;-79
2022/11/13 13:24:44;;;;;;;14.82;9.80;;;;;;;;;;5117156;28;20035;-79
2022/11/13 13:28:04;;;;;;;15.05;9.77;;;;;;;;;;5117754;28;20040;-81
2022/11/13 13:31:11;;;;;;;14.60;10.07;;;;;;;;;;5118085;28;20047;-78
2022/11/13 13:34:31;;;;;;;15.23;10.13;;;;;;;;;;5114456;28;20239;-78
2022/11/13 13:37:50;;;;;;;12.70;8.95;;;;;;;;;;5113714;28;20484;-78
2022/11/13 13:41:31;;;;;;;13.43;9.52;;;;;;;;;;5113394;28;20047;-78
2022/11/13 13:44:51;;;;;;;15.25;11.00;;;;;;;;;;5114213;28;20035;-78
2022/11/13 13:47:57;;;;;;;18.85;12.02;;;;;;;;;;5115462;28;20040;-79
2022/11/13 13:51:03;;;;;;;28.58;20.40;;;;;;;;;;5115779;28;20504;-77
2022/11/13 13:54:08;;;;;;;25.80;17.38;;;;;;;;;;5116655;28;20044;-77
2022/11/13 13:57:15;;;;;;;17.63;12.35;;;;;;;;;;5116604;28;20039;-77
2022/11/13 14:00:19;;;;;;;20.58;13.68;;;;;;;;;;5116440;28;20032;-77
2022/11/13 14:03:25;;;;;;;18.10;11.52;;;;;;;;;;5116692;28;20456;-76
2022/11/13 14:06:31;;;;;;;23.70;13.85;;;;;;;;;;5115593;28;20473;-77
2022/11/13 14:09:35;;;;;;;17.58;12.88;;;;;;;;;;5116259;28;20043;-77
2022/11/13 14:12:43;;;;;;;24.48;14.70;;;;;;;;;;5116643;28;20043;-76
2022/11/13 14:15:47;;;;;;;30.10;20.10;;;;;;;;;;5118262;28;20051;-76
2022/11/13 14:19:02;;;;;;;18.83;14.03;;;;;;;;;;5118976;28;20036;-78
2022/11/13 14:22:10;;;;;;;23.42;13.45;;;;;;;;;;5117289;28;20047;-78
2022/11/13 14:25:24;;;;;;;38.97;24.95;;;;;;;;;;5116442;28;20040;-76
2022/11/13 14:28:31;;;;;;;34.20;22.05;;;;;;;;;;5116100;28;20040;-77
2022/11/13 14:31:37;;;;;;;40.78;27.90;;;;;;;;;;5117390;28;20047;-79
2022/11/13 14:34:46;;;;;;;40.90;24.33;;;;;;;;;;5122621;28;20048;-77
2022/11/13 14:37:51;;;;;;;44.33;28.10;;;;;;;;;;5115465;28;20040;-77
2022/11/13 14:40:55;;;;;;;70.28;44.55;;;;;;;;;;5115361;28;20035;-77
2022/11/13 14:44:00;;;;;;;66.35;41.38;;;;;;;;;;5115243;28;20056;-78
2022/11/13 14:47:19;;;;;;;34.85;23.00;;;;;;;;;;5114643;28;20044;-77
2022/11/13 14:50:33;;;;;;;34.55;24.35;;;;;;;;;;5115185;28;20036;-77
2022/11/13 14:53:40;;;;;;;38.78;25.77;;;;;;;;;;5114690;28;20036;-76
2022/11/13 14:56:45;;;;;;;38.10;24.85;;;;;;;;;;5115784;28;20051;-76
2022/11/13 14:59:49;;;;;;;32.92;20.20;;;;;;;;;;5115988;28;20036;-77
2022/11/13 15:02:53;;;;;;;33.30;21.27;;;;;;;;;;5116235;28;20043;-77
2022/11/13 15:05:56;;;;;;;34.70;20.55;;;;;;;;;;5116338;28;20496;-77
2022/11/13 15:09:01;;;;;;;61.10;31.13;;;;;;;;;;5116688;28;20043;-77
2022/11/13 15:12:09;;;;;;;198.68;89.93;;;;;;;;;;5116354;28;20044;-77
2022/11/13 15:15:21;;;;;;;133.15;55.55;;;;;;;;;;5116470;28;20036;-77
2022/11/13 15:18:25;;;;;;;121.22;50.22;;;;;;;;;;5116238;28;20035;-77
2022/11/13 15:21:30;;;;;;;117.77;52.93;;;;;;;;;;5111519;28;20032;-76
2022/11/13 15:24:34;;;;;;;106.13;54.00;;;;;;;;;;5104912;28;20063;-78
2022/11/13 15:27:38;;;;;;;94.55;46.35;;;;;;;;;;5116457;28;20741;-82
2022/11/13 15:30:42;;;;;;;73.70;40.58;;;;;;;;;;5118049;28;20040;-83
2022/11/13 15:33:47;;;;;;;64.28;33.85;;;;;;;;;;5129948;28;20465;-79
2022/11/13 15:36:53;;;;;;;;;;;;;;;;;;5115529;28;20043;-80
2022/11/13 15:39:57;;;;;;;99.22;45.50;;;;;;;;;;5124105;28;19911;-80
2022/11/13 15:43:03;;;;;;;77.35;35.80;;;;;;;;;;5125135;28;20500;-82
2022/11/13 15:46:16;;;;;;;53.92;31.15;;;;;;;;;;5123322;28;20040;-81
2022/11/13 15:49:21;;;;;;;55.92;30.90;;;;;;;;;;5119569;28;20392;-81
2022/11/13 15:52:28;;;;;;;54.90;32.25;;;;;;;;;;5117599;28;20048;-80
2022/11/13 15:55:33;;;;;;;61.03;34.30;;;;;;;;;;5115391;28;20043;-83
2022/11/13 15:58:37;;;;;;;122.73;57.87;;;;;;;;;;5114474;28;20035;-82
2022/11/13 16:01:42;;;;;;;117.60;51.83;;;;;;;;;;5134792;28;20268;-82
2022/11/13 16:04:47;;;;;;;115.18;58.90;;;;;;;;;;5139057;28;20036;-82
2022/11/13 16:07:52;;;;;;;127.35;63.40;;;;;;;;;;5116265;28;20043;-83
2022/11/13 16:10:56;;;;;;;124.13;59.38;;;;;;;;;;5118225;28;20040;-83
2022/11/13 16:14:01;;;;;;;139.30;64.05;;;;;;;;;;5125376;28;20044;-83
2022/11/13 16:17:15;;;;;;;133.80;60.92;;;;;;;;;;5115548;28;20043;-82
2022/11/13 16:20:19;;;;;;;191.85;100.80;;;;;;;;;;5115101;28;20039;-82
2022/11/13 16:23:24;;;;;;;162.00;78.75;;;;;;;;;;5125266;28;20043;-83
2022/11/13 16:26:28;;;;;;;;;;;;;;;;;;5103515;28;20047;-82
2022/11/13 16:29:32;;;;;;;113.00;48.65;;;;;;;;;;5115078;28;19912;-81
2022/11/13 16:32:36;;;;;;;119.63;58.25;;;;;;;;;;5114622;28;20039;-84
2022/11/13 16:35:42;;;;;;;116.50;53.72;;;;;;;;;;5118795;28;20040;-84
2022/11/13 16:38:45;;;;;;;102.30;49.08;;;;;;;;;;5114864;28;20047;-82
2022/11/13 16:41:49;;;;;;;86.70;46.33;;;;;;;;;;5105159;28;20043;-82
2022/11/13 16:44:53;;;;;;;91.47;49.45;;;;;;;;;;5114377;28;20044;-83
2022/11/13 16:47:58;;;;;;;65.63;35.85;;;;;;;;;;5128036;28;20099;-84
2022/11/13 16:51:01;;;;;;;92.15;48.70;;;;;;;;;;5118621;28;20028;-84
2022/11/13 16:54:06;;;;;;;129.68;68.82;;;;;;;;;;5122438;28;20488;-82
2022/11/13 16:57:15;;;;;;;141.70;76.07;;;;;;;;;;5120381;28;20040;-81
2022/11/13 17:00:19;;;;;;;91.22;43.22;;;;;;;;;;5124953;28;20036;-81
2022/11/13 17:03:24;;;;;;;40.47;25.25;;;;;;;;;;5120049;28;20044;-81
2022/11/13 17:06:32;;;;;;;37.85;22.77;;;;;;;;;;5119468;28;20047;-82
2022/11/13 17:09:40;;;;;;;128.70;66.70;;;;;;;;;;5119565;28;20043;-83
2022/11/13 17:12:52;;;;;;;85.30;46.90;;;;;;;;;;5118168;28;20047;-81
2022/11/13 17:16:00;;;;;;;78.18;44.20;;;;;;;;;;5118004;28;20039;-82
2022/11/13 17:19:03;;;;;;;87.20;45.88;;;;;;;;;;5119163;28;20476;-81
2022/11/13 17:22:07;;;;;;;90.53;52.13;;;;;;;;;;5118705;28;20036;-82
2022/11/13 17:25:11;;;;;;;86.85;46.40;;;;;;;;;;5105597;28;20047;-81
2022/11/13 17:28:15;;;;;;;78.15;38.45;;;;;;;;;;5124039;28;20051;-84
2022/11/13 17:31:20;;;;;;;34.50;21.80;;;;;;;;;;5118632;28;20039;-84
2022/11/13 17:34:24;;;;;;;35.60;21.57;;;;;;;;;;5118090;28;20040;-81
2022/11/13 17:37:28;;;;;;;23.15;15.25;;;;;;;;;;5137629;28;20063;-81
2022/11/13 17:40:32;;;;;;;27.40;16.42;;;;;;;;;;5116927;28;20043;-80
2022/11/13 17:43:37;;;;;;;34.65;22.77;;;;;;;;;;5117431;28;20043;-83
2022/11/13 17:46:41;;;;;;;28.13;17.60;;;;;;;;;;5132327;28;20044;-82
2022/11/13 17:49:46;;;;;;;28.30;17.10;;;;;;;;;;5126299;28;20044;-83
2022/11/13 17:52:49;;;;;;;62.55;32.13;;;;;;;;;;5130384;28;20023;-83
2022/11/13 17:55:55;;;;;;;24.75;15.18;;;;;;;;;;5121812;28;20036;-82
2022/11/13 17:59:00;;;;;;;57.55;31.55;;;;;;;;;;5107250;28;20043;-83
2022/11/13 18:02:05;;;;;;;65.50;34.30;;;;;;;;;;5125222;28;20044;-84
2022/11/13 18:05:10;;;;;;;63.70;32.50;;;;;;;;;;5127530;28;20044;-83
2022/11/13 18:08:14;;;;;;;73.00;38.55;;;;;;;;;;5105448;28;20039;-84
2022/11/13 18:11:18;;;;;;;75.10;41.28;;;;;;;;;;5137728;28;20028;-83
2022/11/13 18:14:23;;;;;;;76.90;39.45;;;;;;;;;;5117027;28;20040;-84
2022/11/13 18:17:27;;;;;;;76.93;39.38;;;;;;;;;;5118786;28;20483;-83
2022/11/13 18:20:33;;;;;;;82.90;45.63;;;;;;;;;;5126101;28;20036;-83